sensor_id;sensor_type;location;lat;lon;timestamp;pressure;altitude;pressure_sealevel;temperature;humidity
32131;BME280;18639;50.716;7.086;2023-03-03T00:01:36;100967.03;;;1.52;100.00
32131;BME280;18639;50.716;7.086;2023-03-03T00:04:02;100981.44;;;1.54;100.00
32131;BME280;18639;50.716;7.086;2023-03-03T00:06:27;100971.41;;;1.45;100.00
32131;BME280;18639;50.716;7.086;2023-03-03T00:08:54;100979.00;;;1.47;100.00
32131;BME280;18639;50.716;7.086;2023-03-03T00:11:19;100967.22;;;1.41;100.00
32131;BME280;18639;50.716;7.086;2023-03-03T00:13:53;100975.72;;;1.42;100.00
32131;BME280;18639;50.716;7.086;2023-03-03T00:16:30;100987.50;;;1.46;100.00
32131;BME280;18639;50.716;7.086;2023-03-03T00:18:56;100991.00;;;1.40;100.00
32131;BME280;18639;50.716;7.086;2023-03-03T00:21:29;100996.00;;;1.45;100.00
32131;BME280;18639;50.716;7.086;2023-03-03T00:26:36;100978.44;;;1.30;100.00
32131;BME280;18639;50.716;7.086;2023-03-03T00:29:35;100995.50;;;1.24;100.00
32131;BME280;18639;50.716;7.086;2023-03-03T00:34:47;100991.19;;;1.30;100.00
32131;BME280;18639;50.716;7.086;2023-03-03T00:37:34;101004.81;;;1.27;100.00
32131;BME280;18639;50.716;7.086;2023-03-03T00:40:30;101006.44;;;1.30;100.00
32131;BME280;18639;50.716;7.086;2023-03-03T00:42:58;101007.28;;;1.30;100.00
32131;BME280;18639;50.716;7.086;2023-03-03T00:45:33;101009.03;;;1.28;100.00
32131;BME280;18639;50.716;7.086;2023-03-03T00:48:18;100993.94;;;1.17;100.00
32131;BME280;18639;50.716;7.086;2023-03-03T00:50:45;100985.56;;;1.09;100.00
32131;BME280;18639;50.716;7.086;2023-03-03T00:53:15;101015.00;;;1.25;100.00
32131;BME280;18639;50.716;7.086;2023-03-03T00:55:41;100998.19;;;1.15;100.00
32131;BME280;18639;50.716;7.086;2023-03-03T00:58:07;100986.41;;;1.11;100.00
32131;BME280;18639;50.716;7.086;2023-03-03T01:00:33;101004.06;;;1.19;100.00
32131;BME280;18639;50.716;7.086;2023-03-03T01:03:02;101002.38;;;1.19;100.00
32131;BME280;18639;50.716;7.086;2023-03-03T01:05:27;100992.34;;;1.09;100.00
32131;BME280;18639;50.716;7.086;2023-03-03T01:07:53;100974.72;;;0.97;100.00
32131;BME280;18639;50.716;7.086;2023-03-03T01:10:18;101011.00;;;1.09;100.00
32131;BME280;18639;50.716;7.086;2023-03-03T01:12:44;101003.53;;;0.99;100.00
32131;BME280;18639;50.716;7.086;2023-03-03T01:15:12;101019.41;;;1.14;100.00
32131;BME280;18639;50.716;7.086;2023-03-03T01:17:38;100978.25;;;0.88;100.00
32131;BME280;18639;50.716;7.086;2023-03-03T01:20:05;101006.00;;;1.03;100.00
32131;BME280;18639;50.716;7.086;2023-03-03T01:22:31;101015.34;;;1.04;100.00
32131;BME280;18639;50.716;7.086;2023-03-03T01:24:56;101000.97;;;1.00;100.00
32131;BME280;18639;50.716;7.086;2023-03-03T01:27:21;100990.16;;;0.86;100.00
32131;BME280;18639;50.716;7.086;2023-03-03T01:29:46;101001.91;;;0.96;100.00
32131;BME280;18639;50.716;7.086;2023-03-03T01:32:12;101000.97;;;1.00;100.00
32131;BME280;18639;50.716;7.086;2023-03-03T01:34:37;100952.31;;;0.65;100.00
32131;BME280;18639;50.716;7.086;2023-03-03T01:37:02;100982.63;;;0.80;100.00
32131;BME280;18639;50.716;7.086;2023-03-03T01:39:27;101000.25;;;0.92;100.00
32131;BME280;18639;50.716;7.086;2023-03-03T01:41:53;101005.31;;;0.95;100.00
32131;BME280;18639;50.716;7.086;2023-03-03T01:44:18;100973.31;;;0.79;100.00
32131;BME280;18639;50.716;7.086;2023-03-03T01:46:48;101002.84;;;0.88;100.00
32131;BME280;18639;50.716;7.086;2023-03-03T01:49:21;100975.16;;;0.69;100.00
32131;BME280;18639;50.716;7.086;2023-03-03T01:51:50;101019.81;;;0.89;100.00
32131;BME280;18639;50.716;7.086;2023-03-03T01:54:22;101022.38;;;0.85;100.00
32131;BME280;18639;50.716;7.086;2023-03-03T01:56:50;101012.28;;;0.81;100.00
32131;BME280;18639;50.716;7.086;2023-03-03T01:59:20;101023.28;;;0.83;100.00
32131;BME280;18639;50.716;7.086;2023-03-03T02:01:48;100960.16;;;0.50;100.00
32131;BME280;18639;50.716;7.086;2023-03-03T02:04:13;101000.63;;;0.65;100.00
32131;BME280;18639;50.716;7.086;2023-03-03T02:06:44;101019.94;;;0.78;100.00
32131;BME280;18639;50.716;7.086;2023-03-03T02:09:21;101015.72;;;0.77;100.00
32131;BME280;18639;50.716;7.086;2023-03-03T02:11:52;101014.88;;;0.78;100.00
32131;BME280;18639;50.716;7.086;2023-03-03T02:14:18;101007.31;;;0.72;100.00
32131;BME280;18639;50.716;7.086;2023-03-03T02:16:44;101014.13;;;0.70;100.00
32131;BME280;18639;50.716;7.086;2023-03-03T02:19:41;101007.34;;;0.70;100.00
32131;BME280;18639;50.716;7.086;2023-03-03T02:22:02;101012.47;;;0.69;100.00
32131;BME280;18639;50.716;7.086;2023-03-03T02:24:34;101003.13;;;0.69;100.00
32131;BME280;18639;50.716;7.086;2023-03-03T02:27:02;100998.16;;;0.60;100.00
32131;BME280;18639;50.716;7.086;2023-03-03T02:29:28;100997.28;;;0.61;100.00
32131;BME280;18639;50.716;7.086;2023-03-03T02:31:53;101015.88;;;0.65;100.00
32131;BME280;18639;50.716;7.086;2023-03-03T02:34:18;101004.22;;;0.52;100.00
32131;BME280;18639;50.716;7.086;2023-03-03T02:36:44;101021.84;;;0.64;100.00
32131;BME280;18639;50.716;7.086;2023-03-03T02:39:25;101013.53;;;0.51;100.00
32131;BME280;18639;50.716;7.086;2023-03-03T02:42:17;101026.09;;;0.62;100.00
32131;BME280;18639;50.716;7.086;2023-03-03T02:44:44;101010.22;;;0.45;100.00
32131;BME280;18639;50.716;7.086;2023-03-03T02:47:10;101032.94;;;0.57;100.00
32131;BME280;18639;50.716;7.086;2023-03-03T02:49:35;101039.66;;;0.61;100.00
32131;BME280;18639;50.716;7.086;2023-03-03T02:52:03;101043.06;;;0.60;100.00
32131;BME280;18639;50.716;7.086;2023-03-03T02:54:30;101033.78;;;0.59;100.00
32131;BME280;18639;50.716;7.086;2023-03-03T02:56:56;100958.16;;;0.06;100.00
32131;BME280;18639;50.716;7.086;2023-03-03T02:59:21;101032.97;;;0.54;100.00
32131;BME280;18639;50.716;7.086;2023-03-03T03:01:48;101038.88;;;0.57;100.00
32131;BME280;18639;50.716;7.086;2023-03-03T03:04:16;101033.81;;;0.54;100.00
32131;BME280;18639;50.716;7.086;2023-03-03T03:06:43;101003.50;;;0.39;100.00
32131;BME280;18639;50.716;7.086;2023-03-03T03:09:09;101028.78;;;0.53;100.00
32131;BME280;18639;50.716;7.086;2023-03-03T03:11:35;101037.31;;;0.47;100.00
32131;BME280;18639;50.716;7.086;2023-03-03T03:14:02;101018.81;;;0.34;100.00
32131;BME280;18639;50.716;7.086;2023-03-03T03:16:27;101060.09;;;0.55;100.00
32131;BME280;18639;50.716;7.086;2023-03-03T03:18:53;101055.03;;;0.52;100.00
32131;BME280;18639;50.716;7.086;2023-03-03T03:21:18;101060.06;;;0.56;100.00
32131;BME280;18639;50.716;7.086;2023-03-03T03:23:44;101057.53;;;0.56;100.00
32131;BME280;18639;50.716;7.086;2023-03-03T03:26:10;101025.59;;;0.35;100.00
32131;BME280;18639;50.716;7.086;2023-03-03T03:28:35;101021.41;;;0.31;100.00
32131;BME280;18639;50.716;7.086;2023-03-03T03:31:02;101056.66;;;0.59;100.00
32131;BME280;18639;50.716;7.086;2023-03-03T03:33:27;101049.97;;;0.50;100.00
32131;BME280;18639;50.716;7.086;2023-03-03T03:35:53;101033.94;;;0.47;100.00
32131;BME280;18639;50.716;7.086;2023-03-03T03:38:20;101058.38;;;0.58;100.00
32131;BME280;18639;50.716;7.086;2023-03-03T03:40:46;101049.06;;;0.54;100.00
32131;BME280;18639;50.716;7.086;2023-03-03T03:43:11;101054.97;;;0.58;100.00
32131;BME280;18639;50.716;7.086;2023-03-03T03:45:37;101060.88;;;0.60;100.00
32131;BME280;18639;50.716;7.086;2023-03-03T03:48:02;101065.09;;;0.61;100.00
32131;BME280;18639;50.716;7.086;2023-03-03T03:50:28;101053.28;;;0.57;100.00
32131;BME280;18639;50.716;7.086;2023-03-03T03:52:53;101060.00;;;0.61;100.00
32131;BME280;18639;50.716;7.086;2023-03-03T03:55:19;101032.97;;;0.54;100.00
32131;BME280;18639;50.716;7.086;2023-03-03T03:57:44;101031.41;;;0.43;100.00
32131;BME280;18639;50.716;7.086;2023-03-03T04:00:10;101062.59;;;0.58;100.00
32131;BME280;18639;50.716;7.086;2023-03-03T04:02:36;101073.50;;;0.66;100.00
32131;BME280;18639;50.716;7.086;2023-03-03T04:05:02;101078.59;;;0.66;100.00
32131;BME280;18639;50.716;7.086;2023-03-03T04:07:27;101074.41;;;0.62;100.00
32131;BME280;18639;50.716;7.086;2023-03-03T04:09:53;101080.34;;;0.64;100.00
32131;BME280;18639;50.716;7.086;2023-03-03T04:12:18;101070.97;;;0.64;100.00
32131;BME280;18639;50.716;7.086;2023-03-03T04:14:43;101076.00;;;0.70;100.00
32131;BME280;18639;50.716;7.086;2023-03-03T04:17:20;101084.44;;;0.72;100.00
32131;BME280;18639;50.716;7.086;2023-03-03T04:19:45;101085.28;;;0.74;100.00
32131;BME280;18639;50.716;7.086;2023-03-03T04:22:11;101078.44;;;0.78;100.00
32131;BME280;18639;50.716;7.086;2023-03-03T04:24:38;101086.84;;;0.83;100.00
32131;BME280;18639;50.716;7.086;2023-03-03T04:27:06;101039.81;;;0.49;100.00
32131;BME280;18639;50.716;7.086;2023-03-03T04:29:33;101053.94;;;0.74;100.00
32131;BME280;18639;50.716;7.086;2023-03-03T04:31:59;100999.19;;;0.46;100.00
32131;BME280;18639;50.716;7.086;2023-03-03T04:34:24;101059.72;;;0.85;100.00
32131;BME280;18639;50.716;7.086;2023-03-03T04:36:49;101074.78;;;0.99;100.00
32131;BME280;18639;50.716;7.086;2023-03-03T04:39:15;101073.13;;;0.96;100.00
32131;BME280;18639;50.716;7.086;2023-03-03T04:41:40;101059.66;;;0.88;100.00
32131;BME280;18639;50.716;7.086;2023-03-03T04:44:06;101080.66;;;1.02;100.00
32131;BME280;18639;50.716;7.086;2023-03-03T04:46:31;101044.31;;;0.94;100.00
32131;BME280;18639;50.716;7.086;2023-03-03T04:48:56;101059.41;;;1.06;100.00
32131;BME280;18639;50.716;7.086;2023-03-03T04:51:22;101057.75;;;1.04;100.00
32131;BME280;18639;50.716;7.086;2023-03-03T04:53:47;101027.53;;;0.81;100.00
32131;BME280;18639;50.716;7.086;2023-03-03T04:56:13;101022.47;;;0.79;100.00
32131;BME280;18639;50.716;7.086;2023-03-03T04:58:38;101092.13;;;1.32;100.00
32131;BME280;18639;50.716;7.086;2023-03-03T05:01:04;101092.91;;;1.36;100.00
32131;BME280;18639;50.716;7.086;2023-03-03T05:03:30;101076.84;;;1.32;100.00
32131;BME280;18639;50.716;7.086;2023-03-03T05:05:55;101111.41;;;1.47;100.00
32131;BME280;18639;50.716;7.086;2023-03-03T05:08:20;101116.44;;;1.50;100.00
32131;BME280;18639;50.716;7.086;2023-03-03T05:10:50;101109.59;;;1.55;100.00
32131;BME280;18639;50.716;7.086;2023-03-03T05:13:16;101091.88;;;1.49;100.00
32131;BME280;18639;50.716;7.086;2023-03-03T05:15:41;101047.25;;;1.26;100.00
32131;BME280;18639;50.716;7.086;2023-03-03T05:18:07;101100.13;;;1.64;100.00
32131;BME280;18639;50.716;7.086;2023-03-03T05:20:32;101048.00;;;1.32;100.00
32131;BME280;18639;50.716;7.086;2023-03-03T05:22:58;101099.97;;;1.74;100.00
32131;BME280;18639;50.716;7.086;2023-03-03T05:25:25;101133.81;;;1.80;100.00
32131;BME280;18639;50.716;7.086;2023-03-03T05:27:51;101112.59;;;1.81;100.00
32131;BME280;18639;50.716;7.086;2023-03-03T05:30:16;101095.72;;;1.74;100.00
32131;BME280;18639;50.716;7.086;2023-03-03T05:32:41;101117.56;;;1.87;100.00
32131;BME280;18639;50.716;7.086;2023-03-03T05:35:07;101100.72;;;1.79;100.00
32131;BME280;18639;50.716;7.086;2023-03-03T05:37:32;101096.47;;;1.81;100.00
32131;BME280;18639;50.716;7.086;2023-03-03T05:39:57;101120.94;;;1.89;100.00
32131;BME280;18639;50.716;7.086;2023-03-03T05:42:23;101102.44;;;1.78;100.00
32131;BME280;18639;50.716;7.086;2023-03-03T05:44:48;101092.50;;;1.63;100.00
32131;BME280;18639;50.716;7.086;2023-03-03T05:47:13;101128.63;;;1.86;100.00
32131;BME280;18639;50.716;7.086;2023-03-03T05:49:39;101125.34;;;1.78;100.00
32131;BME280;18639;50.716;7.086;2023-03-03T05:52:04;101122.72;;;1.83;100.00
32131;BME280;18639;50.716;7.086;2023-03-03T05:54:29;101115.94;;;1.83;100.00
32131;BME280;18639;50.716;7.086;2023-03-03T05:56:54;101078.16;;;1.56;100.00
32131;BME280;18639;50.716;7.086;2023-03-03T05:59:22;101131.13;;;1.89;100.00
32131;BME280;18639;50.716;7.086;2023-03-03T06:01:47;101126.00;;;1.92;100.00
32131;BME280;18639;50.716;7.086;2023-03-03T06:04:12;101088.94;;;1.72;100.00
32131;BME280;18639;50.716;7.086;2023-03-03T06:06:38;101091.47;;;1.73;100.00
32131;BME280;18639;50.716;7.086;2023-03-03T06:09:03;101126.00;;;1.92;100.00
32131;BME280;18639;50.716;7.086;2023-03-03T06:11:28;101119.22;;;1.90;100.00
32131;BME280;18639;50.716;7.086;2023-03-03T06:13:54;101035.22;;;1.35;100.00
32131;BME280;18639;50.716;7.086;2023-03-03T06:16:19;101134.44;;;1.93;100.00
32131;BME280;18639;50.716;7.086;2023-03-03T06:18:44;101109.09;;;1.85;100.00
32131;BME280;18639;50.716;7.086;2023-03-03T06:21:10;101134.31;;;2.02;100.00
32131;BME280;18639;50.716;7.086;2023-03-03T06:23:35;101141.88;;;2.08;100.00
32131;BME280;18639;50.716;7.086;2023-03-03T06:26:00;101136.63;;;2.14;100.00
32131;BME280;18639;50.716;7.086;2023-03-03T06:28:26;101124.13;;;2.00;100.00
32131;BME280;18639;50.716;7.086;2023-03-03T06:30:54;101153.63;;;2.15;100.00
32131;BME280;18639;50.716;7.086;2023-03-03T06:33:20;101157.84;;;2.18;100.00
32131;BME280;18639;50.716;7.086;2023-03-03T06:35:54;101154.47;;;2.16;100.00
32131;BME280;18639;50.716;7.086;2023-03-03T06:38:20;101147.84;;;2.05;100.00
32131;BME280;18639;50.716;7.086;2023-03-03T06:40:46;101158.69;;;2.17;100.00
32131;BME280;18639;50.716;7.086;2023-03-03T06:43:11;101160.47;;;2.13;100.00
32131;BME280;18639;50.716;7.086;2023-03-03T06:45:37;101161.31;;;2.14;100.00
32131;BME280;18639;50.716;7.086;2023-03-03T06:48:03;101154.63;;;2.06;100.00
32131;BME280;18639;50.716;7.086;2023-03-03T06:50:28;101155.47;;;2.05;100.00
32131;BME280;18639;50.716;7.086;2023-03-03T06:53:05;101165.50;;;2.15;100.00
32131;BME280;18639;50.716;7.086;2023-03-03T06:55:31;101165.56;;;2.13;100.00
32131;BME280;18639;50.716;7.086;2023-03-03T06:57:58;101157.94;;;2.11;100.00
32131;BME280;18639;50.716;7.086;2023-03-03T07:00:25;101170.53;;;2.19;100.00
32131;BME280;18639;50.716;7.086;2023-03-03T07:03:11;101176.59;;;2.14;100.00
32131;BME280;18639;50.716;7.086;2023-03-03T07:05:38;101174.00;;;2.15;100.00
32131;BME280;18639;50.716;7.086;2023-03-03T07:08:13;101195.22;;;2.17;100.00
32131;BME280;18639;50.716;7.086;2023-03-03T07:10:39;101181.06;;;2.01;100.00
32131;BME280;18639;50.716;7.086;2023-03-03T07:13:23;101208.84;;;2.15;100.00
32131;BME280;18639;50.716;7.086;2023-03-03T07:15:51;101182.69;;;2.05;100.00
32131;BME280;18639;50.716;7.086;2023-03-03T07:18:34;101213.78;;;2.25;100.00
32131;BME280;18639;50.716;7.086;2023-03-03T07:21:22;101214.72;;;2.20;100.00
32131;BME280;18639;50.716;7.086;2023-03-03T07:23:49;101204.59;;;2.15;100.00
32131;BME280;18639;50.716;7.086;2023-03-03T07:26:18;101223.28;;;2.16;100.00
32131;BME280;18639;50.716;7.086;2023-03-03T07:28:52;101223.34;;;2.13;100.00
32131;BME280;18639;50.716;7.086;2023-03-03T07:31:35;101223.22;;;2.20;100.00
32131;BME280;18639;50.716;7.086;2023-03-03T07:34:13;101225.75;;;2.22;100.00
32131;BME280;18639;50.716;7.086;2023-03-03T07:36:40;101225.75;;;2.22;100.00
32131;BME280;18639;50.716;7.086;2023-03-03T07:39:20;101224.03;;;2.22;100.00
32131;BME280;18639;50.716;7.086;2023-03-03T07:41:49;101225.81;;;2.19;100.00
32131;BME280;18639;50.716;7.086;2023-03-03T07:44:21;101211.41;;;2.15;100.00
32131;BME280;18639;50.716;7.086;2023-03-03T07:46:49;101223.38;;;2.09;100.00
32131;BME280;18639;50.716;7.086;2023-03-03T07:49:37;101234.41;;;2.11;100.00
32131;BME280;18639;50.716;7.086;2023-03-03T07:52:28;101240.97;;;2.26;100.00
32131;BME280;18639;50.716;7.086;2023-03-03T07:54:57;101245.28;;;2.21;100.00
32131;BME280;18639;50.716;7.086;2023-03-03T07:57:35;101247.72;;;2.29;100.00
32131;BME280;18639;50.716;7.086;2023-03-03T08:00:08;101255.47;;;2.23;100.00
32131;BME280;18639;50.716;7.086;2023-03-03T08:03:11;101251.13;;;2.29;100.00
32131;BME280;18639;50.716;7.086;2023-03-03T08:05:42;101245.13;;;2.32;100.00
32131;BME280;18639;50.716;7.086;2023-03-03T08:10:47;101230.91;;;2.17;100.00
32131;BME280;18639;50.716;7.086;2023-03-03T08:13:19;101251.00;;;2.37;100.00
32131;BME280;18639;50.716;7.086;2023-03-03T08:16:23;101253.44;;;2.43;100.00
32131;BME280;18639;50.716;7.086;2023-03-03T08:18:52;101205.53;;;2.11;100.00
32131;BME280;18639;50.716;7.086;2023-03-03T08:21:20;101259.31;;;2.48;100.00
32131;BME280;18639;50.716;7.086;2023-03-03T08:23:46;101257.63;;;2.47;100.00
32131;BME280;18639;50.716;7.086;2023-03-03T08:26:14;101254.41;;;2.36;100.00
32131;BME280;18639;50.716;7.086;2023-03-03T08:28:41;101261.84;;;2.48;100.00
32131;BME280;18639;50.716;7.086;2023-03-03T08:31:06;101256.78;;;2.46;100.00
32131;BME280;18639;50.716;7.086;2023-03-03T08:33:32;101270.25;;;2.56;100.00
32131;BME280;18639;50.716;7.086;2023-03-03T08:35:57;101266.09;;;2.49;100.00
32131;BME280;18639;50.716;7.086;2023-03-03T08:38:22;101269.47;;;2.51;100.00
32131;BME280;18639;50.716;7.086;2023-03-03T08:40:48;101273.59;;;2.58;100.00
32131;BME280;18639;50.716;7.086;2023-03-03T08:43:14;101280.44;;;2.56;100.00
32131;BME280;18639;50.716;7.086;2023-03-03T08:45:46;101274.50;;;2.54;100.00
32131;BME280;18639;50.716;7.086;2023-03-03T08:48:12;101279.69;;;2.49;100.00
32131;BME280;18639;50.716;7.086;2023-03-03T08:50:37;101269.59;;;2.42;100.00
32131;BME280;18639;50.716;7.086;2023-03-03T08:53:04;101260.44;;;2.30;100.00
32131;BME280;18639;50.716;7.086;2023-03-03T08:55:30;101274.44;;;2.57;100.00
32131;BME280;18639;50.716;7.086;2023-03-03T08:57:55;101279.50;;;2.60;100.00
32131;BME280;18639;50.716;7.086;2023-03-03T09:00:20;101252.59;;;2.42;100.00
32131;BME280;18639;50.716;7.086;2023-03-03T09:02:47;101270.25;;;2.56;100.00
32131;BME280;18639;50.716;7.086;2023-03-03T09:05:13;101292.13;;;2.68;100.00
32131;BME280;18639;50.716;7.086;2023-03-03T09:07:39;101294.66;;;2.69;100.00
32131;BME280;18639;50.716;7.086;2023-03-03T09:10:06;101271.19;;;2.49;100.00
32131;BME280;18639;50.716;7.086;2023-03-03T09:12:37;101301.53;;;2.66;100.00
32131;BME280;18639;50.716;7.086;2023-03-03T09:15:15;101303.16;;;2.68;100.00
32131;BME280;18639;50.716;7.086;2023-03-03T09:17:41;101295.63;;;2.62;100.00
32131;BME280;18639;50.716;7.086;2023-03-03T09:20:36;101303.91;;;2.75;100.00
32131;BME280;18639;50.716;7.086;2023-03-03T09:23:28;101305.59;;;2.77;100.00
32131;BME280;18639;50.716;7.086;2023-03-03T09:25:55;101308.16;;;2.76;100.00
32131;BME280;18639;50.716;7.086;2023-03-03T09:28:27;101317.59;;;2.72;100.00
32131;BME280;18639;50.716;7.086;2023-03-03T09:30:56;101311.56;;;2.76;100.00
32131;BME280;18639;50.716;7.086;2023-03-03T09:35:52;101315.53;;;2.92;100.00
32131;BME280;18639;50.716;7.086;2023-03-03T09:38:30;101312.81;;;3.02;100.00
32131;BME280;18639;50.716;7.086;2023-03-03T09:49:11;101313.47;;;3.13;100.00
32131;BME280;18639;50.716;7.086;2023-03-03T09:57:16;101311.78;;;3.10;100.00
32131;BME280;18639;50.716;7.086;2023-03-03T10:02:48;101322.81;;;3.12;100.00
32131;BME280;18639;50.716;7.086;2023-03-03T10:05:31;101329.47;;;3.21;100.00
32131;BME280;18639;50.716;7.086;2023-03-03T10:11:03;101325.84;;;3.32;100.00
32131;BME280;18639;50.716;7.086;2023-03-03T10:13:59;101329.47;;;3.21;100.00
32131;BME280;18639;50.716;7.086;2023-03-03T10:19:36;101326.69;;;3.33;100.00
32131;BME280;18639;50.716;7.086;2023-03-03T10:22:15;101335.09;;;3.39;100.00
32131;BME280;18639;50.716;7.086;2023-03-03T10:25:06;101339.38;;;3.37;100.00
32131;BME280;18639;50.716;7.086;2023-03-03T10:33:17;101347.13;;;3.31;100.00
32131;BME280;18639;50.716;7.086;2023-03-03T10:36:18;101343.91;;;3.22;100.00
32131;BME280;18639;50.716;7.086;2023-03-03T10:44:20;101354.69;;;2.91;100.00
32131;BME280;18639;50.716;7.086;2023-03-03T10:47:13;101345.63;;;3.21;100.00
32131;BME280;18639;50.716;7.086;2023-03-03T10:49:51;101312.81;;;3.00;100.00
32131;BME280;18639;50.716;7.086;2023-03-03T10:55:16;101351.47;;;3.28;100.00
32131;BME280;18639;50.716;7.086;2023-03-03T10:58:11;101343.59;;;3.38;100.00
32131;BME280;18639;50.716;7.086;2023-03-03T11:01:07;101337.53;;;3.44;100.00
32131;BME280;18639;50.716;7.086;2023-03-03T11:06:34;101332.19;;;3.58;100.00
32131;BME280;18639;50.716;7.086;2023-03-03T11:09:30;101349.88;;;3.67;100.00
32131;BME280;18639;50.716;7.086;2023-03-03T11:12:17;101346.28;;;3.75;100.00
32131;BME280;18639;50.716;7.086;2023-03-03T11:20:41;101351.34;;;3.78;100.00
32131;BME280;18639;50.716;7.086;2023-03-03T11:31:25;101343.47;;;3.88;100.00
32131;BME280;18639;50.716;7.086;2023-03-03T11:34:09;101347.59;;;3.95;100.00
32131;BME280;18639;50.716;7.086;2023-03-03T11:36:43;101346.69;;;3.96;100.00
32131;BME280;18639;50.716;7.086;2023-03-03T11:39:19;101334.94;;;3.89;100.00
32131;BME280;18639;50.716;7.086;2023-03-03T11:42:03;101310.53;;;3.74;100.00
32131;BME280;18639;50.716;7.086;2023-03-03T11:44:40;101324.88;;;3.79;100.00
32131;BME280;18639;50.716;7.086;2023-03-03T11:47:17;101349.13;;;4.02;100.00
32131;BME280;18639;50.716;7.086;2023-03-03T11:49:50;101338.66;;;4.12;100.00
32131;BME280;18639;50.716;7.086;2023-03-03T11:52:54;101335.97;;;4.20;100.00
32131;BME280;18639;50.716;7.086;2023-03-03T11:55:30;101332.34;;;4.29;100.00
32131;BME280;18639;50.716;7.086;2023-03-03T12:00:43;101322.94;;;4.29;100.00
32131;BME280;18639;50.716;7.086;2023-03-03T12:03:24;101303.34;;;4.28;100.00
32131;BME280;18639;50.716;7.086;2023-03-03T12:05:56;101323.53;;;4.40;100.00
32131;BME280;18639;50.716;7.086;2023-03-03T12:14:29;101305.59;;;4.42;100.00
32131;BME280;18639;50.716;7.086;2023-03-03T12:17:06;101294.44;;;4.44;100.00
32131;BME280;18639;50.716;7.086;2023-03-03T12:22:37;101278.94;;;4.50;100.00
32131;BME280;18639;50.716;7.086;2023-03-03T12:27:55;101278.69;;;4.61;100.00
32131;BME280;18639;50.716;7.086;2023-03-03T12:33:53;101285.63;;;4.90;100.00
32131;BME280;18639;50.716;7.086;2023-03-03T12:36:30;101281.81;;;5.04;97.85
32131;BME280;18639;50.716;7.086;2023-03-03T12:39:28;101286.38;;;4.93;97.05
32131;BME280;18639;50.716;7.086;2023-03-03T12:44:59;101272.31;;;5.08;96.88
32131;BME280;18639;50.716;7.086;2023-03-03T12:47:40;101273.84;;;5.15;95.57
32131;BME280;18639;50.716;7.086;2023-03-03T12:55:56;101282.47;;;5.13;93.65
32131;BME280;18639;50.716;7.086;2023-03-03T12:58:36;101278.00;;;5.19;93.34
32131;BME280;18639;50.716;7.086;2023-03-03T13:03:48;101272.09;;;5.17;95.27
32131;BME280;18639;50.716;7.086;2023-03-03T13:06:29;101267.41;;;5.31;93.95
32131;BME280;18639;50.716;7.086;2023-03-03T13:09:18;101265.50;;;5.39;93.69
32131;BME280;18639;50.716;7.086;2023-03-03T13:14:40;101251.13;;;5.34;92.46
32131;BME280;18639;50.716;7.086;2023-03-03T13:17:16;101261.81;;;5.48;92.25
32131;BME280;18639;50.716;7.086;2023-03-03T13:20:04;101257.88;;;5.36;91.51
32131;BME280;18639;50.716;7.086;2023-03-03T13:22:44;101261.81;;;5.48;91.91
32131;BME280;18639;50.716;7.086;2023-03-03T13:30:48;101262.31;;;5.61;91.52
32131;BME280;18639;50.716;7.086;2023-03-03T13:33:25;101257.34;;;5.55;90.37
32131;BME280;18639;50.716;7.086;2023-03-03T13:38:22;101260.53;;;5.63;91.27
32131;BME280;18639;50.716;7.086;2023-03-03T13:40:56;101256.19;;;5.65;89.66
32131;BME280;18639;50.716;7.086;2023-03-03T13:43:29;101257.63;;;5.73;91.78
32131;BME280;18639;50.716;7.086;2023-03-03T13:48:38;101255.06;;;6.03;89.50
32131;BME280;18639;50.716;7.086;2023-03-03T13:51:30;101251.16;;;5.91;88.98
32131;BME280;18639;50.716;7.086;2023-03-03T14:08:03;101239.69;;;5.73;88.55
32131;BME280;18639;50.716;7.086;2023-03-03T14:10:35;101238.91;;;5.71;88.44
32131;BME280;18639;50.716;7.086;2023-03-03T14:13:20;101228.19;;;5.59;89.00
32131;BME280;18639;50.716;7.086;2023-03-03T14:16:14;101239.72;;;5.72;89.44
32131;BME280;18639;50.716;7.086;2023-03-03T14:18:54;101232.94;;;5.71;90.69
32131;BME280;18639;50.716;7.086;2023-03-03T14:21:30;101236.66;;;5.61;91.37
32131;BME280;18639;50.716;7.086;2023-03-03T14:26:29;101233.19;;;5.62;90.12
32131;BME280;18639;50.716;7.086;2023-03-03T14:29:19;101228.06;;;5.62;89.98
32131;BME280;18639;50.716;7.086;2023-03-03T14:31:45;101236.75;;;5.58;90.53
32131;BME280;18639;50.716;7.086;2023-03-03T14:34:35;101234.81;;;5.66;91.55
32131;BME280;18639;50.716;7.086;2023-03-03T14:37:28;101239.03;;;5.67;90.13
32131;BME280;18639;50.716;7.086;2023-03-03T14:40:28;101231.44;;;5.64;90.24
32131;BME280;18639;50.716;7.086;2023-03-03T14:42:55;101235.44;;;5.44;89.92
32131;BME280;18639;50.716;7.086;2023-03-03T14:45:40;101242.44;;;5.39;90.42
32131;BME280;18639;50.716;7.086;2023-03-03T14:48:16;101231.53;;;5.31;93.21
32131;BME280;18639;50.716;7.086;2023-03-03T14:50:51;101222.34;;;5.24;92.78
32131;BME280;18639;50.716;7.086;2023-03-03T14:55:44;101233.13;;;5.35;92.15
32131;BME280;18639;50.716;7.086;2023-03-03T15:01:14;101220.16;;;5.12;93.15
32131;BME280;18639;50.716;7.086;2023-03-03T15:03:46;101213.38;;;5.09;93.88
32131;BME280;18639;50.716;7.086;2023-03-03T15:06:27;101211.22;;;4.96;94.36
32131;BME280;18639;50.716;7.086;2023-03-03T15:08:53;101209.19;;;5.07;92.34
32131;BME280;18639;50.716;7.086;2023-03-03T15:13:51;101220.50;;;4.98;94.49
32131;BME280;18639;50.716;7.086;2023-03-03T15:16:22;101207.31;;;4.81;93.80
32131;BME280;18639;50.716;7.086;2023-03-03T15:21:30;101218.56;;;4.76;95.17
32131;BME280;18639;50.716;7.086;2023-03-03T15:26:46;101203.56;;;4.62;93.65
32131;BME280;18639;50.716;7.086;2023-03-03T15:29:24;101209.84;;;4.50;95.42
32131;BME280;18639;50.716;7.086;2023-03-03T15:32:36;101210.81;;;4.46;96.84